< < Back
Terminal Aerodrome Forecast


Current Version              Previous Versions:   1  2  3  4  5  6  7  8  9  

Terminal Aerodrome Forecast

508
FTUS42 KFFC 012100 AAA
TAFMCN
TAF AMD
KMCN 012119Z 0121/0218 06004KT P6SM VCSH BKN016
     FM012300 06004KT P6SM VCSH SCT025 BKN080
     FM020700 07003KT 5SM BR BKN012
     FM020900 07005KT 3SM BR OVC008
     FM021500 07004KT P6SM VCSH BKN015=

Latest METAR

234
SAUS80 KWBC 020800
MTRMCN
METAR KMCN 020753Z AUTO 03005KT 10SM SCT012 OVC085 21/19 A3002 RMK AO2
SLP162 T02060194 TSNO


USA.gov is the U.S. government's official web portal to all federal, state and local government web resources and services.